Time;durP1;ratioP1;P1;durP2;ratioP2;P2;SDS_P1;SDS_P2;PMS_P1;PMS_P2;Temp;Humidity;BMP_temperature;BMP_pressure;BME280_temperature;BME280_humidity;BME280_pressure;Samples;Min_cycle;Max_cycle;Signal;HPM_P1;HPM_P2
2023/10/06 00:18:59;;;;;;;11.27;5.00;;;;;;;13.53;76.82;101675.94;5917881;24;20574;-73
2023/10/06 00:34:30;;;;;;;11.20;5.43;;;;;;;13.40;78.16;101680.66;5929557;24;20187;-73
2023/10/06 01:45:59;;;;;;;11.87;5.00;;;;;;;12.51;79.30;101681.38;6030028;23;20252;-73
2023/10/06 01:49:50;;;;;;;7.93;4.70;;;;;;;12.55;79.29;101669.53;5989540;23;20191;-75
2023/10/06 02:40:16;;;;;;;10.90;4.33;;;;;;;12.51;77.67;101644.13;5763005;24;20199;-73
2023/10/06 02:44:14;;;;;;;12.50;4.60;;;;;;;12.56;77.58;101653.44;5882265;24;20206;-73
2023/10/06 02:54:47;;;;;;;9.20;5.23;;;;;;;12.30;78.34;101647.69;5869591;24;20245;-73
2023/10/06 02:58:09;;;;;;;12.77;5.10;;;;;;;12.15;79.27;101648.97;5869308;24;20322;-73
2023/10/06 03:42:03;;;;;;;;;;;;;;;;;;;;;
2023/10/06 03:53:59;;;;;;;12.33;5.10;;;;;;;12.37;77.64;101645.34;5949994;24;20288;-73
2023/10/06 05:08:39;;;;;;;12.43;6.20;;;;;;;12.07;76.15;101640.78;5953092;23;20274;-73
2023/10/06 05:12:32;;;;;;;13.07;5.97;;;;;;;12.00;76.65;101642.28;6002284;23;20251;-72
2023/10/06 05:19:09;;;;;;;16.13;6.20;;;;;;;12.02;76.16;101643.00;5978100;23;20584;-73
2023/10/06 05:24:43;;;;;;;10.50;5.60;;;;;;;12.04;75.34;101649.91;6031218;23;20188;-73
2023/10/06 05:27:19;;;;;;;8.43;5.07;;;;;;;12.05;75.05;101650.72;6034788;23;20185;-74
2023/10/06 05:29:52;;;;;;;8.73;5.00;;;;;;;12.00;74.74;101643.13;6035275;23;20223;-74
2023/10/06 05:32:24;;;;;;;10.87;4.57;;;;;;;11.94;74.74;101648.13;6035290;23;20283;-73
2023/10/06 05:34:53;;;;;;;8.00;4.33;;;;;;;11.92;74.43;101658.88;6065106;23;20188;-75
2023/10/06 05:37:21;;;;;;;10.33;4.83;;;;;;;11.91;74.40;101661.66;6124185;23;20192;-73
2023/10/06 05:39:50;;;;;;;9.47;4.03;;;;;;;11.93;74.58;101665.03;6124509;23;20182;-74
2023/10/06 05:42:20;;;;;;;7.77;4.00;;;;;;;11.92;74.23;101666.00;6124336;23;20198;-73
2023/10/06 05:44:49;;;;;;;10.60;4.20;;;;;;;11.90;74.23;101675.94;6124463;23;20259;-74
2023/10/06 05:47:17;;;;;;;12.00;4.30;;;;;;;11.85;74.67;101670.16;6124238;23;20191;-73
2023/10/06 05:49:49;;;;;;;9.83;3.90;;;;;;;11.85;74.62;101667.50;6124356;23;20201;-74
2023/10/06 05:52:20;;;;;;;13.40;4.33;;;;;;;11.82;74.81;101678.38;6124979;23;20193;-75
2023/10/06 05:54:49;;;;;;;12.37;4.00;;;;;;;11.82;74.84;101683.69;6124489;23;20197;-73
2023/10/06 05:57:21;;;;;;;11.63;4.10;;;;;;;11.82;74.78;101684.53;6123965;23;20241;-73
2023/10/06 05:59:53;;;;;;;9.33;4.67;;;;;;;11.86;74.81;101674.50;6124319;23;20194;-74
2023/10/06 06:02:25;;;;;;;12.63;4.83;;;;;;;11.88;75.01;101680.50;6124535;23;20205;-73
2023/10/06 06:04:57;;;;;;;16.87;5.90;;;;;;;11.87;74.82;101677.03;6124650;23;20170;-74
2023/10/06 06:07:28;;;;;;;9.30;4.73;;;;;;;11.84;74.94;101676.44;6124043;23;20206;-75
2023/10/06 06:09:58;;;;;;;10.57;5.00;;;;;;;11.88;74.82;101677.84;6127884;23;20174;-75
2023/10/06 06:12:28;;;;;;;16.53;5.67;;;;;;;11.82;75.12;101673.06;6156410;23;20256;-74
2023/10/06 06:14:59;;;;;;;11.13;6.03;;;;;;;11.76;75.66;101674.44;6156458;23;20625;-74
2023/10/06 06:17:28;;;;;;;15.30;5.10;;;;;;;11.77;76.44;101673.47;6157319;23;20173;-76
2023/10/06 06:24:20;;;;;;;16.20;5.20;;;;;;;11.96;75.75;101670.13;6009852;23;20637;-75
2023/10/06 06:26:55;;;;;;;21.97;5.43;;;;;;;11.97;76.39;101674.44;6010597;23;20709;-75
2023/10/06 06:29:29;;;;;;;13.40;4.90;;;;;;;12.05;75.69;101672.81;6010573;23;20205;-74
2023/10/06 06:32:11;;;;;;;15.13;5.40;;;;;;;12.05;76.65;101669.31;6010101;23;20184;-74
2023/10/06 06:34:57;;;;;;;9.67;4.63;;;;;;;12.13;75.83;101677.53;6007877;23;20181;-74
2023/10/06 06:41:45;;;;;;;15.70;5.80;;;;;;;12.18;77.16;101680.63;6038266;23;20188;-76
2023/10/06 06:44:53;;;;;;;10.10;5.07;;;;;;;12.22;77.33;101684.72;6032722;23;20184;-72
2023/10/06 06:50:42;;;;;;;14.10;5.70;;;;;;;12.14;77.72;101694.31;6036365;23;20224;-74
2023/10/06 06:53:27;;;;;;;12.40;5.47;;;;;;;11.97;79.32;101693.03;6036463;23;20271;-74
2023/10/06 06:56:05;;;;;;;14.13;6.17;;;;;;;11.82;80.41;101697.81;6035727;23;20191;-74
2023/10/06 07:02:28;;;;;;;13.17;5.90;;;;;;;11.86;80.62;101693.97;5951998;24;20514;-74
2023/10/06 07:04:57;;;;;;;11.70;5.90;;;;;;;11.91;80.08;101690.91;6015729;23;20243;-74
2023/10/06 07:07:26;;;;;;;11.50;5.80;;;;;;;11.84;81.00;101681.75;6035296;23;20228;-74
2023/10/06 07:10:06;;;;;;;16.80;6.30;;;;;;;11.83;81.56;101680.06;6034897;23;20177;-75
2023/10/06 07:12:35;;;;;;;14.10;5.87;;;;;;;11.75;81.84;101683.38;6035627;23;20280;-74
2023/10/06 07:15:03;;;;;;;11.90;6.23;;;;;;;11.83;81.67;101674.75;6093032;23;20185;-74
2023/10/06 07:17:33;;;;;;;11.87;5.80;;;;;;;11.95;81.32;101674.59;6154145;23;20181;-75
2023/10/06 07:20:29;;;;;;;10.53;5.23;;;;;;;12.00;81.00;101682.16;6078881;23;20181;-74
2023/10/06 07:23:02;;;;;;;12.10;5.47;;;;;;;12.15;80.06;101686.19;6155047;23;20225;-74
2023/10/06 07:26:00;;;;;;;13.57;5.80;;;;;;;12.33;79.81;101683.78;6154493;23;20522;-75
2023/10/06 07:28:31;;;;;;;14.70;6.87;;;;;;;12.50;78.89;101682.34;6129036;23;20182;-74
2023/10/06 07:31:04;;;;;;;14.20;6.73;;;;;;;12.64;78.59;101688.19;6155143;23;20505;-74
2023/10/06 07:33:34;;;;;;;14.37;7.73;;;;;;;12.75;78.42;101688.09;6155300;23;20720;-75
2023/10/06 07:36:13;;;;;;;21.17;7.87;;;;;;;12.88;78.10;101695.88;6154958;23;20173;-73
2023/10/06 07:38:45;;;;;;;14.97;7.77;;;;;;;12.93;78.39;101696.31;6154272;23;20177;-75
2023/10/06 07:41:20;;;;;;;18.17;8.37;;;;;;;12.90;78.66;101693.94;6155111;23;20170;-76
2023/10/06 07:43:52;;;;;;;16.93;7.83;;;;;;;13.00;78.93;101686.84;6153173;23;20188;-73
2023/10/06 07:46:21;;;;;;;21.20;7.80;;;;;;;13.16;78.23;101694.34;6153986;23;20186;-75
2023/10/06 07:48:51;;;;;;;12.80;7.10;;;;;;;13.12;78.81;101709.69;6154851;23;20205;-74
2023/10/06 07:51:20;;;;;;;16.40;6.87;;;;;;;13.10;79.40;101698.38;6154162;23;20627;-74
2023/10/06 07:53:48;;;;;;;14.27;7.57;;;;;;;13.15;79.65;101701.50;6154427;23;20267;-74
2023/10/06 07:56:20;;;;;;;15.97;7.87;;;;;;;13.25;79.60;101693.53;6154508;23;20609;-74
2023/10/06 07:58:52;;;;;;;16.90;8.20;;;;;;;13.22;80.42;101696.47;6153837;23;20177;-75
2023/10/06 08:01:24;;;;;;;22.20;8.77;;;;;;;13.33;78.90;101690.19;6128390;23;20200;-74
2023/10/06 08:03:54;;;;;;;18.33;8.57;;;;;;;13.61;77.40;101694.75;6154313;23;20180;-74
2023/10/06 08:06:24;;;;;;;17.80;8.67;;;;;;;13.77;76.12;101694.19;6154192;23;20179;-74
2023/10/06 08:09:05;;;;;;;20.50;8.50;;;;;;;14.04;76.73;101691.66;6153730;23;20192;-75
2023/10/06 08:11:39;;;;;;;16.50;7.73;;;;;;;13.96;77.05;101691.53;6154005;23;20177;-74
2023/10/06 08:14:07;;;;;;;15.07;8.13;;;;;;;13.86;76.11;101696.88;6146982;23;20228;-72
2023/10/06 08:16:35;;;;;;;19.27;8.73;;;;;;;13.94;76.29;101697.00;6145031;23;20532;-70
2023/10/06 08:19:06;;;;;;;23.43;9.13;;;;;;;14.11;75.44;101691.94;6144520;23;20181;-71
2023/10/06 08:21:34;;;;;;;17.73;8.70;;;;;;;14.39;74.37;101696.44;6144958;23;20484;-72
2023/10/06 08:24:02;;;;;;;21.93;8.27;;;;;;;14.59;73.55;101700.75;6145459;23;20278;-71
2023/10/06 08:26:30;;;;;;;21.57;8.00;;;;;;;14.65;72.75;101702.84;6144431;23;20181;-70
2023/10/06 08:28:58;;;;;;;16.73;7.80;;;;;;;14.78;73.25;101701.66;6144787;23;20630;-69
2023/10/06 08:31:28;;;;;;;16.10;8.47;;;;;;;14.72;71.60;101696.91;6145247;23;20978;-70
2023/10/06 08:33:58;;;;;;;18.13;9.20;;;;;;;14.79;71.78;101692.66;6120140;23;20231;-69
2023/10/06 08:36:29;;;;;;;13.53;8.00;;;;;;;15.00;73.08;101698.66;6148934;23;20197;-74
2023/10/06 08:38:58;;;;;;;19.47;8.57;;;;;;;15.52;71.03;101704.28;6150310;23;20181;-73
2023/10/06 08:41:34;;;;;;;15.27;7.97;;;;;;;15.49;70.69;101692.03;6150337;23;20178;-69
2023/10/06 08:44:03;;;;;;;18.23;7.93;;;;;;;15.72;70.19;101695.19;6149158;23;20170;-70
2023/10/06 08:46:34;;;;;;;12.03;6.77;;;;;;;16.96;66.18;101694.13;6148163;23;20260;-70
2023/10/06 08:49:02;;;;;;;14.43;7.57;;;;;;;18.67;59.67;101682.66;6146811;23;20260;-70
2023/10/06 08:51:32;;;;;;;19.17;7.47;;;;;;;20.50;53.16;101694.56;6147013;23;20189;-73
2023/10/06 08:54:02;;;;;;;14.80;6.87;;;;;;;21.88;49.01;101685.59;6146480;23;20387;-71
2023/10/06 08:56:33;;;;;;;14.40;7.30;;;;;;;22.57;47.05;101690.34;6147197;23;20685;-71
2023/10/06 08:59:01;;;;;;;14.85;6.03;;;;;;;23.54;44.37;101689.22;6145725;23;20722;-70
2023/10/06 09:01:30;;;;;;;14.98;7.78;;;;;;;24.55;42.52;101683.69;6146038;23;20541;-71
2023/10/06 09:04:02;;;;;;;16.30;7.70;;;;;;;24.83;41.87;101694.28;6146897;23;20227;-69
2023/10/06 09:06:32;;;;;;;15.20;6.90;;;;;;;24.43;42.18;101682.69;6147363;23;20247;-73
2023/10/06 09:09:01;;;;;;;13.65;7.53;;;;;;;23.58;43.52;101685.06;6146390;23;20190;-70
2023/10/06 09:11:38;;;;;;;16.75;7.57;;;;;;;22.32;46.44;101673.72;6147115;23;20205;-71
2023/10/06 09:14:07;;;;;;;16.92;7.43;;;;;;;21.26;48.93;101675.34;6146231;23;20902;-71
2023/10/06 09:16:48;;;;;;;16.08;7.70;;;;;;;20.37;51.53;101673.63;6145751;23;20292;-69
2023/10/06 09:19:17;;;;;;;18.05;8.05;;;;;;;20.18;52.42;101666.03;6146599;23;20181;-70
2023/10/06 09:22:04;;;;;;;13.38;7.07;;;;;;;20.57;51.40;101676.66;6147628;23;20228;-70
2023/10/06 09:24:32;;;;;;;16.65;7.78;;;;;;;21.61;49.66;101673.69;6146386;23;20170;-70
2023/10/06 09:27:05;;;;;;;15.98;8.05;;;;;;;23.15;45.79;101661.97;6146256;23;20178;-70
2023/10/06 09:29:34;;;;;;;21.08;8.65;;;;;;;24.20;43.15;101655.94;6146838;23;20220;-69
2023/10/06 09:32:04;;;;;;;13.13;7.53;;;;;;;25.35;41.05;101649.84;6148391;23;20178;-71
2023/10/06 09:34:32;;;;;;;15.90;8.68;;;;;;;27.41;37.91;101650.47;6148889;23;20193;-70
2023/10/06 09:37:18;;;;;;;16.30;9.00;;;;;;;27.54;36.26;101658.47;6148245;23;20252;-69
2023/10/06 09:39:56;;;;;;;17.88;8.55;;;;;;;27.04;37.68;101645.09;6148148;23;20276;-68
2023/10/06 09:42:27;;;;;;;13.50;7.75;;;;;;;26.18;38.42;101639.69;6150153;23;20566;-70
2023/10/06 09:45:11;;;;;;;17.17;8.93;;;;;;;24.72;41.07;101636.09;6147456;23;20736;-71
2023/10/06 09:47:48;;;;;;;16.38;8.02;;;;;;;22.86;44.69;101644.19;6145896;23;20170;-72
2023/10/06 09:50:18;;;;;;;18.90;8.45;;;;;;;21.51;48.01;101639.91;6147451;23;20173;-69
2023/10/06 09:52:48;;;;;;;15.13;7.63;;;;;;;20.61;50.33;101649.13;6146145;23;20173;-71
2023/10/06 09:55:20;;;;;;;16.63;8.43;;;;;;;20.00;52.39;101638.59;6146340;23;20508;-71
2023/10/06 09:57:50;;;;;;;18.48;8.07;;;;;;;19.51;54.39;101638.97;6144827;23;20284;-70
2023/10/06 10:00:19;;;;;;;19.13;8.82;;;;;;;19.13;55.87;101641.50;6154158;23;20182;-75
2023/10/06 10:02:48;;;;;;;22.17;9.13;;;;;;;18.97;56.33;101641.59;6154296;23;20186;-75
2023/10/06 10:05:19;;;;;;;19.58;7.85;;;;;;;18.71;57.31;101630.28;6153366;23;20221;-73
2023/10/06 10:08:00;;;;;;;14.53;8.03;;;;;;;18.61;57.82;101624.25;6153383;23;20236;-73
2023/10/06 10:10:32;;;;;;;17.43;8.90;;;;;;;18.50;59.09;101617.38;6153347;23;20165;-74
2023/10/06 10:13:19;;;;;;;14.80;8.13;;;;;;;18.50;58.32;101616.53;6154673;23;20182;-74
2023/10/06 10:16:04;;;;;;;16.10;8.13;;;;;;;18.57;59.04;101623.75;6154502;23;20228;-74
2023/10/06 10:18:38;;;;;;;21.30;8.83;;;;;;;20.67;53.51;101620.59;6154864;23;20574;-75
2023/10/06 10:21:09;;;;;;;21.17;9.60;;;;;;;23.70;45.37;101611.34;6153552;23;20610;-74
2023/10/06 10:23:40;;;;;;;15.77;7.67;;;;;;;23.51;44.49;101623.81;6154107;23;20170;-75
2023/10/06 10:26:16;;;;;;;16.60;8.90;;;;;;;22.41;46.98;101622.03;6153783;23;20197;-75
2023/10/06 10:28:44;;;;;;;21.77;8.10;;;;;;;21.36;49.69;101621.94;6153817;23;20180;-73
2023/10/06 10:31:17;;;;;;;17.83;7.90;;;;;;;20.49;52.12;101617.47;6152265;23;20702;-77
2023/10/06 10:33:51;;;;;;;18.93;9.10;;;;;;;19.95;54.06;101614.94;6154515;23;20673;-74
2023/10/06 10:36:38;;;;;;;17.47;8.93;;;;;;;19.94;54.29;101609.72;6155412;23;20536;-74
2023/10/06 10:39:16;;;;;;;23.67;8.97;;;;;;;19.46;55.15;101614.41;6155751;23;20176;-74
2023/10/06 10:41:47;;;;;;;17.80;7.77;;;;;;;19.34;56.25;101610.47;6154994;23;20224;-76
2023/10/06 10:44:25;;;;;;;23.77;8.80;;;;;;;19.63;56.22;101602.56;6155710;23;20166;-74
2023/10/06 10:47:06;;;;;;;23.33;9.60;;;;;;;19.71;54.64;101597.09;6155686;23;20630;-74
2023/10/06 10:53:21;;;;;;;16.27;7.63;;;;;;;19.37;55.63;101605.56;6155648;23;20180;-75
2023/10/06 10:55:51;;;;;;;16.40;7.67;;;;;;;19.27;55.76;101604.13;6155601;23;20220;-74
2023/10/06 11:02:36;;;;;;;16.57;7.57;;;;;;;19.22;56.63;101595.75;5856016;24;20252;-75
2023/10/06 11:08:22;;;;;;;17.03;7.27;;;;;;;19.61;54.67;101572.31;6062405;23;20667;-74
2023/10/06 11:11:06;;;;;;;11.77;6.30;;;;;;;19.61;54.88;101569.63;6154883;23;20170;-75
2023/10/06 11:17:23;;;;;;;13.27;5.43;;;;;;;23.41;44.91;101567.31;5989335;23;20217;-74
2023/10/06 11:20:36;;;;;;;18.25;5.30;;;;;;;23.26;43.61;101566.69;6085810;23;20188;-74
2023/10/06 12:10:37;;;;;;;8.60;3.63;;;;;;;20.75;49.18;101503.78;6143183;23;20192;-75
2023/10/06 12:33:16;;;;;;;10.60;4.00;;;;;;;21.56;46.07;101460.19;6095048;23;20208;-76
2023/10/06 13:19:14;;;;;;;10.43;4.33;;;;;;;19.60;51.04;101436.13;5896431;24;20624;-76
2023/10/06 13:21:49;;;;;;;11.80;4.17;;;;;;;19.64;50.81;101426.66;5958182;23;20227;-75
2023/10/06 13:25:00;;;;;;;12.23;4.73;;;;;;;19.63;50.77;101427.66;6034211;23;20192;-75
2023/10/06 13:31:52;;;;;;;15.57;4.83;;;;;;;19.58;50.79;101423.84;6009539;23;20188;-75
2023/10/06 13:35:13;;;;;;;11.10;4.70;;;;;;;19.67;50.57;101423.59;6022478;23;20641;-75
2023/10/06 14:38:14;;;;;;;10.77;4.67;;;;;;;19.87;52.20;101370.06;5916982;23;20236;-78
2023/10/06 14:49:07;;;;;;;;;;;;;;;;;;;;;
2023/10/06 14:52:31;;;;;;;10.10;4.20;;;;;;;19.55;53.86;101379.31;5979515;23;20524;-75
2023/10/06 14:55:23;;;;;;;13.43;4.33;;;;;;;19.62;53.32;101379.41;6124784;23;20222;-75
2023/10/06 15:04:27;;;;;;;11.00;4.33;;;;;;;19.38;54.41;101361.66;6120374;23;20174;-76
2023/10/06 15:17:28;;;;;;;11.50;4.33;;;;;;;19.11;56.12;101373.84;6005926;23;20187;-76
2023/10/06 16:13:32;;;;;;;9.57;4.23;;;;;;;18.70;59.66;101351.84;5877080;24;20189;-74
2023/10/06 16:27:54;;;;;;;13.83;5.30;;;;;;;18.31;60.41;101358.13;5841992;24;20197;-74
2023/10/06 16:46:28;;;;;;;10.13;4.17;;;;;;;17.88;62.54;101367.56;6007226;23;20270;-74
2023/10/06 16:49:33;;;;;;;14.93;4.50;;;;;;;17.80;63.14;101370.28;6006838;23;20167;-75
2023/10/06 18:12:21;;;;;;;21.30;8.73;;;;;;;16.59;67.52;101389.94;5871066;24;20213;-74
2023/10/06 18:15:32;;;;;;;;;;;;;;;;;;;;;
2023/10/06 18:18:13;;;;;;;18.80;8.50;;;;;;;16.56;66.75;101392.94;5922845;24;20195;-74
2023/10/06 18:24:13;;;;;;;16.87;7.90;;;;;;;16.50;66.36;101386.44;6089381;23;20185;-75
2023/10/06 18:26:41;;;;;;;15.60;8.17;;;;;;;16.48;65.60;101393.78;6124069;23;20186;-74
2023/10/06 18:29:11;;;;;;;19.43;8.67;;;;;;;16.47;65.41;101396.63;6124033;23;20182;-77
2023/10/06 18:31:39;;;;;;;16.83;8.60;;;;;;;16.49;66.58;101395.47;6123966;23;20202;-74
2023/10/06 18:34:09;;;;;;;17.20;8.53;;;;;;;16.45;66.53;101401.28;6123906;23;20183;-75
2023/10/06 18:36:37;;;;;;;17.57;7.77;;;;;;;16.41;66.65;101399.94;6124526;23;20198;-75
2023/10/06 18:39:27;;;;;;;18.67;8.00;;;;;;;16.39;66.82;101393.91;6124025;23;20174;-74
2023/10/06 18:41:55;;;;;;;15.50;7.33;;;;;;;16.37;66.47;101398.59;6111669;23;20198;-74
2023/10/06 18:44:26;;;;;;;17.27;7.63;;;;;;;16.35;67.01;101389.91;6124176;23;20174;-75
2023/10/06 18:46:55;;;;;;;15.53;8.87;;;;;;;16.35;66.73;101395.25;6123736;23;20170;-74
2023/10/06 18:49:22;;;;;;;16.80;8.43;;;;;;;16.35;67.19;101397.94;6124029;23;20183;-74
2023/10/06 18:52:00;;;;;;;17.03;7.90;;;;;;;16.33;66.95;101394.59;6123341;23;20217;-75
2023/10/06 18:54:52;;;;;;;19.50;8.17;;;;;;;16.32;66.84;101391.06;6125024;23;20173;-74
2023/10/06 18:57:24;;;;;;;19.60;7.87;;;;;;;16.30;67.23;101403.75;6123696;23;20290;-76
2023/10/06 19:00:31;;;;;;;19.40;9.20;;;;;;;16.30;67.26;101408.28;6125258;23;20233;-74
2023/10/06 19:03:29;;;;;;;16.57;8.40;;;;;;;16.22;67.09;101401.06;6110627;23;20201;-74
2023/10/06 19:06:04;;;;;;;17.53;7.90;;;;;;;16.21;67.77;101409.25;6124664;23;20263;-75
2023/10/06 19:08:39;;;;;;;19.40;8.50;;;;;;;16.19;68.09;101404.91;6124350;23;20174;-74
2023/10/06 19:11:13;;;;;;;15.27;8.40;;;;;;;16.22;67.76;101402.91;6125268;23;20221;-75
2023/10/06 19:14:10;;;;;;;17.87;7.23;;;;;;;16.17;68.05;101409.59;6125327;23;20253;-74
2023/10/06 19:16:40;;;;;;;14.13;7.40;;;;;;;16.17;67.96;101414.09;6124699;23;20210;-75
2023/10/06 19:22:44;;;;;;;16.63;7.57;;;;;;;15.98;68.19;101415.19;6123202;23;20240;-75
2023/10/06 19:25:14;;;;;;;14.83;6.83;;;;;;;15.90;68.32;101414.31;6121679;23;20174;-76
2023/10/06 19:35:15;;;;;;;16.63;8.77;;;;;;;15.73;69.11;101421.41;6088946;23;20186;-77
2023/10/06 20:03:44;;;;;;;18.50;8.40;;;;;;;15.64;67.94;101403.66;5961290;24;20214;-76
2023/10/06 20:10:12;;;;;;;18.50;9.03;;;;;;;15.39;69.13;101403.44;6003265;23;20189;-73
2023/10/06 20:17:27;;;;;;;;;;;;;;;;;;;;;
2023/10/06 20:20:46;;;;;;;24.73;11.73;;;;;;;15.67;68.89;101384.59;5998868;23;20739;-74
2023/10/06 20:23:57;;;;;;;19.13;8.37;;;;;;;15.74;68.55;101385.66;5843917;24;20273;-76
2023/10/06 20:26:44;;;;;;;;;;;;;;;;;;;;;
2023/10/06 20:29:45;;;;;;;15.30;7.30;;;;;;;15.78;67.78;101397.69;5865955;24;20633;-74
2023/10/06 20:32:28;;;;;;;17.57;7.10;;;;;;;15.77;67.25;101402.22;5869878;24;20621;-73
2023/10/06 20:46:16;;;;;;;16.93;8.30;;;;;;;15.54;67.86;101410.94;5865432;24;20221;-72
2023/10/06 20:48:46;;;;;;;14.13;7.53;;;;;;;15.53;68.11;101409.22;5916323;24;20186;-70
2023/10/06 20:51:15;;;;;;;14.70;7.27;;;;;;;15.56;68.31;101408.94;5916671;24;20209;-70
2023/10/06 20:53:44;;;;;;;14.67;7.07;;;;;;;15.60;68.16;101410.28;5916555;24;20194;-70
2023/10/06 20:56:13;;;;;;;17.77;8.87;;;;;;;15.62;67.89;101413.66;5915791;24;20382;-70
2023/10/06 20:58:41;;;;;;;19.17;8.90;;;;;;;15.64;67.71;101412.50;5915488;24;20217;-70
2023/10/06 21:01:09;;;;;;;18.43;8.10;;;;;;;15.60;67.91;101405.78;6000787;23;20287;-70
2023/10/06 21:03:39;;;;;;;16.70;8.00;;;;;;;15.56;67.80;101401.78;6056399;23;20195;-70
2023/10/06 21:06:10;;;;;;;16.93;8.17;;;;;;;15.55;68.18;101412.63;6057442;23;20176;-71
2023/10/06 21:08:40;;;;;;;15.30;8.30;;;;;;;15.56;68.44;101414.28;6057174;23;20666;-70
2023/10/06 21:11:08;;;;;;;20.60;8.30;;;;;;;15.61;67.79;101420.00;6058135;23;20179;-70
2023/10/06 21:13:36;;;;;;;19.40;7.33;;;;;;;15.63;68.21;101413.50;6057141;23;20184;-70
2023/10/06 21:16:05;;;;;;;19.03;8.53;;;;;;;15.62;67.90;101409.16;6083495;23;20655;-70
2023/10/06 21:18:34;;;;;;;17.70;7.93;;;;;;;15.66;68.05;101415.00;6118416;23;20206;-72
2023/10/06 21:21:06;;;;;;;17.17;7.37;;;;;;;15.64;67.84;101423.22;6119171;23;20269;-73
2023/10/06 21:23:34;;;;;;;17.20;7.93;;;;;;;15.60;68.01;101426.34;6118342;23;20241;-75
2023/10/06 21:26:03;;;;;;;18.13;8.67;;;;;;;15.53;67.87;101420.75;6118923;23;20206;-73
2023/10/06 21:28:30;;;;;;;21.50;8.90;;;;;;;15.45;67.71;101431.41;6118635;23;20183;-72
2023/10/06 21:44:00;;;;;;;19.40;8.27;;;;;;;15.15;69.29;101437.16;6118923;23;20206;-74
2023/10/06 21:47:14;;;;;;;23.80;8.57;;;;;;;15.11;69.28;101419.78;6133849;23;20197;-74
2023/10/06 21:50:26;;;;;;;18.13;8.97;;;;;;;15.12;69.20;101427.66;6139334;23;20206;-76
2023/10/06 21:53:12;;;;;;;16.80;8.80;;;;;;;15.06;69.26;101428.25;6148971;23;20398;-75
2023/10/06 22:10:56;;;;;;;;;;;;;;;;;;;;;
2023/10/06 22:24:51;;;;;;;20.53;9.57;;;;;;;14.50;71.41;101432.06;6149322;23;20217;-74
2023/10/06 22:27:31;;;;;;;17.67;8.50;;;;;;;14.47;71.87;101432.34;6146498;23;20216;-76
2023/10/06 22:30:11;;;;;;;19.27;8.70;;;;;;;14.50;71.37;101439.22;6147942;23;20174;-74
2023/10/06 22:32:43;;;;;;;17.47;8.17;;;;;;;14.44;71.60;101443.31;6147599;23;20182;-78
2023/10/06 22:38:55;;;;;;;23.27;9.17;;;;;;;14.61;71.96;101444.31;6140025;23;20204;-75
2023/10/06 23:03:02;;;;;;;17.47;8.93;;;;;;;14.25;71.62;101416.69;6141931;23;20204;-76
2023/10/06 23:19:41;;;;;;;21.90;9.00;;;;;;;14.14;71.26;101390.25;6146864;23;20204;-76
2023/10/06 23:22:13;;;;;;;21.20;8.70;;;;;;;14.08;71.42;101382.81;6148701;23;20182;-75
2023/10/06 23:25:24;;;;;;;24.13;9.83;;;;;;;14.01;71.55;101387.06;6115407;23;20229;-74
2023/10/06 23:41:29;;;;;;;20.00;8.50;;;;;;;13.76;72.77;101383.25;6140712;23;20208;-75
2023/10/06 23:51:32;;;;;;;24.70;8.13;;;;;;;14.02;72.66;101402.94;6135112;23;20213;-79
